createdAt,value
2022-12-31T00:01:45.221Z,100024.34
2022-12-31T00:04:11.957Z,100022.13
2022-12-31T00:06:38.816Z,100022.69
2022-12-31T00:09:05.551Z,100024.91
2022-12-31T00:11:32.333Z,100037.38
2022-12-31T00:13:59.090Z,100038.50
2022-12-31T00:16:25.855Z,100028.78
2022-12-31T00:18:52.634Z,100018.25
2022-12-31T00:21:19.379Z,100026.31
2022-12-31T00:23:46.123Z,100019.38
2022-12-31T00:26:12.919Z,100021.56
2022-12-31T00:28:39.707Z,100025.47
2022-12-31T00:31:06.582Z,100039.31
2022-12-31T00:33:33.391Z,100038.75
2022-12-31T00:39:03.591Z,100048.44
2022-12-31T00:41:30.322Z,100054.81
2022-12-31T00:43:57.127Z,100057.03
2022-12-31T00:46:24.882Z,100059.28
2022-12-31T00:48:51.632Z,100049.81
2022-12-31T00:51:18.477Z,100050.97
2022-12-31T00:53:45.278Z,100039.88
2022-12-31T00:56:12.053Z,100055.09
2022-12-31T00:58:38.792Z,100053.47
2022-12-31T01:01:05.622Z,100057.06
2022-12-31T01:03:32.431Z,100055.66
2022-12-31T01:05:59.295Z,100062.31
2022-12-31T01:08:26.086Z,100082.50
2022-12-31T01:11:11.667Z,100080.88
2022-12-31T01:13:38.425Z,100082.50
2022-12-31T01:16:05.190Z,100074.22
2022-12-31T01:18:31.942Z,100073.13
2022-12-31T01:20:58.684Z,100070.38
2022-12-31T01:23:25.427Z,100068.13
2022-12-31T01:25:52.153Z,100083.66
2022-12-31T01:28:18.921Z,100074.78
2022-12-31T01:30:45.695Z,100081.97
2022-12-31T01:33:12.453Z,100081.44
2022-12-31T01:35:39.201Z,100074.22
2022-12-31T01:38:05.956Z,100070.91
2022-12-31T01:40:32.684Z,100078.41
2022-12-31T01:42:59.468Z,100070.88
2022-12-31T01:45:26.242Z,100074.75
2022-12-31T01:47:53.001Z,100085.28
2022-12-31T01:50:19.763Z,100077.25
2022-12-31T01:52:46.528Z,100070.34
2022-12-31T01:55:13.273Z,100082.31
2022-12-31T01:57:40.042Z,100076.97
2022-12-31T02:00:06.822Z,100073.72
2022-12-31T02:02:33.638Z,100074.78
2022-12-31T02:05:00.515Z,100073.41
2022-12-31T02:07:27.314Z,100067.88
2022-12-31T02:09:54.038Z,100077.00
2022-12-31T02:12:20.820Z,100069.22
2022-12-31T02:14:47.881Z,100073.41
2022-12-31T02:17:14.729Z,100067.00
2022-12-31T02:19:41.615Z,100071.44
2022-12-31T02:22:08.466Z,100071.44
2022-12-31T02:24:35.404Z,100076.44
2022-12-31T02:27:02.251Z,100068.66
2022-12-31T02:29:28.991Z,100062.59
2022-12-31T02:31:55.847Z,100068.69
2022-12-31T02:34:22.660Z,100070.38
2022-12-31T02:36:49.410Z,100063.41
2022-12-31T02:39:16.147Z,100066.47
2022-12-31T02:41:52.154Z,100073.09
2022-12-31T02:44:19.020Z,100072.56
2022-12-31T02:46:45.784Z,100071.44
2022-12-31T02:49:12.544Z,100074.78
2022-12-31T02:51:39.275Z,100059.81
2022-12-31T02:54:05.994Z,100056.78
2022-12-31T02:56:32.751Z,100057.84
2022-12-31T02:59:18.103Z,100061.47
2022-12-31T03:02:03.535Z,100048.75
2022-12-31T03:04:33.516Z,100045.41
2022-12-31T03:07:00.317Z,100040.97
2022-12-31T03:09:27.083Z,100031.84
2022-12-31T03:12:12.687Z,100029.34
2022-12-31T03:14:39.487Z,100026.56
2022-12-31T03:17:06.227Z,100036.00
2022-12-31T03:19:51.618Z,100035.16
2022-12-31T03:22:27.301Z,100029.63
2022-12-31T03:25:12.751Z,100032.13
2022-12-31T03:27:39.541Z,100025.19
2022-12-31T03:30:06.264Z,100019.06
2022-12-31T03:32:33.010Z,100019.94
2022-12-31T03:34:59.755Z,100020.75
2022-12-31T03:37:26.507Z,100019.94
2022-12-31T03:39:53.255Z,100014.09
2022-12-31T03:42:20.008Z,100028.22
2022-12-31T03:44:46.738Z,100030.44
2022-12-31T03:47:13.496Z,100014.94
2022-12-31T03:49:40.246Z,100013.00
2022-12-31T03:52:08.568Z,100009.41
2022-12-31T03:54:35.336Z,100002.75
2022-12-31T03:57:02.069Z,100003.84
2022-12-31T03:59:28.860Z,99998.88
2022-12-31T04:01:55.807Z,99994.44
2022-12-31T04:04:22.651Z,99995.84
2022-12-31T04:06:49.399Z,99995.56
2022-12-31T04:09:16.215Z,99979.75
2022-12-31T04:11:43.005Z,99983.34
2022-12-31T04:14:09.782Z,99977.81
2022-12-31T04:16:36.585Z,99976.16
2022-12-31T04:19:03.379Z,99973.94
2022-12-31T04:21:34.772Z,99966.44
2022-12-31T04:24:02.545Z,99963.97
2022-12-31T04:26:29.331Z,99967.28
2022-12-31T04:28:56.222Z,99952.31
2022-12-31T04:31:23.053Z,99968.41
2022-12-31T04:33:49.831Z,99978.94
2022-12-31T04:36:16.661Z,99964.50
2022-12-31T04:38:43.465Z,99965.63
2022-12-31T04:41:19.729Z,99959.25
2022-12-31T04:43:46.842Z,99957.88
2022-12-31T04:46:13.655Z,99961.75
2022-12-31T04:48:40.448Z,99961.19
2022-12-31T04:51:07.257Z,99949.53
2022-12-31T04:53:34.003Z,99956.78
2022-12-31T04:56:00.758Z,99949.81
2022-12-31T04:58:27.520Z,99936.25
2022-12-31T05:00:55.201Z,99935.16
2022-12-31T05:03:21.990Z,99937.66
2022-12-31T05:05:49.920Z,99931.84
2022-12-31T05:08:16.690Z,99926.84
2022-12-31T05:10:43.445Z,99915.50
2022-12-31T05:13:10.292Z,99917.16
2022-12-31T05:15:37.037Z,99925.75
2022-12-31T05:18:03.841Z,99924.03
2022-12-31T05:20:30.614Z,99914.94
2022-12-31T05:22:57.422Z,99912.44
2022-12-31T05:25:24.210Z,99908.53
2022-12-31T05:27:50.965Z,99910.19
2022-12-31T05:30:18.621Z,99914.66
2022-12-31T05:32:45.356Z,99917.41
2022-12-31T05:35:12.137Z,99897.19
2022-12-31T05:37:38.933Z,99898.03
2022-12-31T05:40:05.696Z,99898.31
2022-12-31T05:42:32.464Z,99892.50
2022-12-31T05:44:59.253Z,99890.28
2022-12-31T05:47:26.077Z,99885.31
2022-12-31T05:49:52.853Z,99887.75
2022-12-31T05:52:19.584Z,99892.47
2022-12-31T05:54:46.340Z,99901.34
2022-12-31T05:57:13.093Z,99902.72
2022-12-31T05:59:39.826Z,99899.13
2022-12-31T06:02:06.589Z,99917.69
2022-12-31T06:04:33.345Z,99913.00
2022-12-31T06:07:00.074Z,99920.19
2022-12-31T06:09:26.848Z,99923.53
2022-12-31T06:11:53.602Z,99921.84
2022-12-31T06:14:20.349Z,99924.06
2022-12-31T06:16:47.075Z,99926.56
2022-12-31T06:19:13.830Z,99920.47
2022-12-31T06:21:40.574Z,99914.66
2022-12-31T06:24:07.307Z,99926.03
2022-12-31T06:26:34.089Z,99925.19
2022-12-31T06:29:00.826Z,99911.03
2022-12-31T06:31:27.578Z,99909.91
2022-12-31T06:33:54.380Z,99916.31
2022-12-31T06:36:22.235Z,99909.13
2022-12-31T06:38:49.042Z,99919.63
2022-12-31T06:41:16.010Z,99919.91
2022-12-31T06:43:42.792Z,99917.13
2022-12-31T06:46:09.569Z,99921.28
2022-12-31T06:48:36.403Z,99926.28
2022-12-31T06:51:03.139Z,99917.16
2022-12-31T06:53:29.866Z,99922.69
2022-12-31T06:55:56.616Z,99914.66
2022-12-31T06:58:23.398Z,99932.34
2022-12-31T07:00:50.136Z,99921.88
2022-12-31T07:03:16.932Z,99926.56
2022-12-31T07:05:43.705Z,99925.16
2022-12-31T07:08:10.441Z,99929.63
2022-12-31T07:10:37.248Z,99933.50
2022-12-31T07:13:03.981Z,99945.41
2022-12-31T07:15:30.708Z,99949.53
2022-12-31T07:17:57.460Z,99946.22
2022-12-31T07:20:24.214Z,99953.16
2022-12-31T07:22:50.946Z,99950.97
2022-12-31T07:25:17.693Z,99957.84
2022-12-31T07:27:44.441Z,99952.31
2022-12-31T07:30:11.230Z,99962.59
2022-12-31T07:32:37.973Z,99965.63
2022-12-31T07:35:04.744Z,99967.59
2022-12-31T07:37:31.477Z,99959.81
2022-12-31T07:39:58.232Z,99970.06
2022-12-31T07:42:24.977Z,99974.75
2022-12-31T07:44:51.705Z,99976.69
2022-12-31T07:47:18.455Z,99978.94
2022-12-31T07:49:45.267Z,99981.69
2022-12-31T07:52:12.031Z,99977.25
2022-12-31T07:54:38.797Z,99978.94
2022-12-31T07:57:05.562Z,99982.22
2022-12-31T07:59:32.422Z,99983.38
2022-12-31T08:02:00.001Z,99990.56
2022-12-31T08:04:26.887Z,100003.31
2022-12-31T08:06:53.636Z,100007.75
2022-12-31T08:09:20.406Z,100005.78
2022-12-31T08:11:47.514Z,100006.63
2022-12-31T08:14:14.254Z,100013.81
2022-12-31T08:16:41.033Z,100009.94
2022-12-31T08:19:07.788Z,100015.75
2022-12-31T08:21:35.126Z,100012.47
2022-12-31T08:24:02.064Z,100013.00
2022-12-31T08:26:28.804Z,100013.81
2022-12-31T08:28:55.541Z,100007.16
2022-12-31T08:31:22.393Z,100013.28
2022-12-31T08:33:49.183Z,100013.28
2022-12-31T08:36:15.988Z,100015.50
2022-12-31T08:38:42.819Z,100023.25
2022-12-31T08:41:09.555Z,100032.69
2022-12-31T08:43:36.279Z,100028.81
2022-12-31T08:46:03.086Z,100032.09
2022-12-31T08:48:29.869Z,100032.41
2022-12-31T08:50:56.645Z,100038.25
2022-12-31T08:53:23.437Z,100041.53
2022-12-31T08:55:50.175Z,100048.22
2022-12-31T08:58:16.934Z,100049.28
2022-12-31T09:00:43.750Z,100052.34
2022-12-31T09:03:10.635Z,100049.88
2022-12-31T09:05:37.372Z,100052.63
2022-12-31T09:08:04.119Z,100056.81
2022-12-31T09:10:30.863Z,100055.66
2022-12-31T09:12:57.602Z,100063.13
2022-12-31T09:15:24.355Z,100069.81
2022-12-31T09:17:51.907Z,100070.91
2022-12-31T09:20:18.693Z,100069.56
2022-12-31T09:22:45.480Z,100070.66
2022-12-31T09:25:12.229Z,100067.59
2022-12-31T09:27:38.981Z,100074.50
2022-12-31T09:30:05.755Z,100078.41
2022-12-31T09:32:32.508Z,100076.19
2022-12-31T09:34:59.338Z,100071.47
2022-12-31T09:37:26.077Z,100072.63
2022-12-31T09:39:52.801Z,100074.78
2022-12-31T09:42:19.540Z,100079.50
2022-12-31T09:44:46.299Z,100081.44
2022-12-31T09:47:13.047Z,100086.19
2022-12-31T09:49:39.807Z,100086.44
2022-12-31T09:52:06.550Z,100090.34
2022-12-31T09:54:33.287Z,100086.44
2022-12-31T09:57:00.032Z,100082.03
2022-12-31T09:59:26.814Z,100074.84
2022-12-31T10:01:53.614Z,100083.44
2022-12-31T10:04:20.480Z,100081.97
2022-12-31T10:06:47.230Z,100092.00
2022-12-31T10:09:13.987Z,100093.09
2022-12-31T10:11:40.747Z,100090.91
2022-12-31T10:14:07.497Z,100090.28
2022-12-31T10:16:34.271Z,100094.25
2022-12-31T10:19:01.044Z,100094.78
2022-12-31T10:21:27.805Z,100099.78
2022-12-31T10:23:54.554Z,100103.09
2022-12-31T10:26:21.289Z,100090.88
2022-12-31T10:28:48.043Z,100104.19
2022-12-31T10:31:14.872Z,100099.78
2022-12-31T10:33:41.662Z,100111.38
2022-12-31T10:36:08.510Z,100111.94
2022-12-31T10:38:35.293Z,100114.44
2022-12-31T10:41:02.048Z,100108.66
2022-12-31T10:43:28.803Z,100109.75
2022-12-31T10:45:55.593Z,100109.75
2022-12-31T10:48:22.362Z,100113.34
2022-12-31T10:50:49.187Z,100116.41
2022-12-31T10:53:15.949Z,100114.19
2022-12-31T10:55:42.699Z,100106.97
2022-12-31T10:58:09.603Z,100112.53
2022-12-31T11:00:36.359Z,100104.75
2022-12-31T11:03:03.219Z,100109.47
2022-12-31T11:05:30.044Z,100099.78
2022-12-31T11:07:56.800Z,100099.78
2022-12-31T11:10:23.542Z,100103.63
2022-12-31T11:12:50.307Z,100107.81
2022-12-31T11:15:17.066Z,100109.19
2022-12-31T11:17:43.795Z,100106.13
2022-12-31T11:20:10.611Z,100110.31
2022-12-31T11:22:37.351Z,100110.25
2022-12-31T11:25:04.105Z,100110.81
2022-12-31T11:27:30.953Z,100109.19
2022-12-31T11:29:57.691Z,100102.00
2022-12-31T11:32:24.421Z,100098.09
2022-12-31T11:34:51.180Z,100100.88
2022-12-31T11:37:17.912Z,100110.31
2022-12-31T11:39:44.651Z,100104.47
2022-12-31T11:42:11.435Z,100110.59
2022-12-31T11:44:38.189Z,100112.53
2022-12-31T11:47:04.943Z,100107.25
2022-12-31T11:49:31.733Z,100113.06
2022-12-31T11:51:58.477Z,100117.22
2022-12-31T11:54:25.231Z,100116.41
2022-12-31T11:56:51.991Z,100102.53
2022-12-31T11:59:19.791Z,100105.59
2022-12-31T12:01:46.780Z,100104.75
2022-12-31T12:04:13.551Z,100115.28
2022-12-31T12:06:40.294Z,100105.59
2022-12-31T12:09:07.048Z,100126.09
2022-12-31T12:11:33.963Z,100124.97
2022-12-31T12:14:00.702Z,100135.53
2022-12-31T12:16:27.600Z,100121.66
2022-12-31T12:18:54.379Z,100121.66
2022-12-31T12:21:21.116Z,100122.22
2022-12-31T12:23:47.839Z,100110.88
2022-12-31T12:26:14.595Z,100115.59
2022-12-31T12:28:44.321Z,100112.50
2022-12-31T12:31:11.363Z,100120.00
2022-12-31T12:33:38.139Z,100121.38
2022-12-31T12:36:04.880Z,100126.94
2022-12-31T12:38:31.619Z,100128.59
2022-12-31T12:40:58.448Z,100130.25
2022-12-31T12:43:26.393Z,100137.47
2022-12-31T12:45:53.124Z,100138.31
2022-12-31T12:48:20.312Z,100157.44
2022-12-31T12:50:47.052Z,100148.53
2022-12-31T12:53:13.802Z,100156.78
2022-12-31T12:55:40.604Z,100160.19
2022-12-31T12:58:07.358Z,100172.38
2022-12-31T13:00:34.195Z,100178.44
2022-12-31T13:03:01.145Z,100182.94
2022-12-31T13:05:28.581Z,100190.41
2022-12-31T13:07:55.485Z,100196.22
2022-12-31T13:10:22.256Z,100189.00
2022-12-31T13:13:22.858Z,100184.59
2022-12-31T13:15:35.754Z,100200.09
2022-12-31T13:18:02.594Z,100192.34
2022-12-31T13:20:29.353Z,100203.41
2022-12-31T13:22:56.094Z,100202.34
2022-12-31T13:25:22.849Z,100198.91
2022-12-31T13:27:50.196Z,100202.31
2022-12-31T13:30:17.024Z,100203.44
2022-12-31T13:32:43.755Z,100192.34
2022-12-31T13:35:11.906Z,100198.97
2022-12-31T13:37:38.663Z,100205.66
2022-12-31T13:40:05.642Z,100191.22
2022-12-31T13:42:32.382Z,100192.91
2022-12-31T13:44:59.158Z,100201.69
2022-12-31T13:47:25.893Z,100195.13
2022-12-31T13:49:52.619Z,100205.34
2022-12-31T13:52:19.365Z,100202.34
2022-12-31T13:54:46.102Z,100211.16
2022-12-31T13:57:12.841Z,100215.03
2022-12-31T13:59:39.579Z,100212.84
2022-12-31T14:02:06.466Z,100217.84
2022-12-31T14:04:33.438Z,100229.44
2022-12-31T14:07:00.238Z,100225.56
2022-12-31T14:09:27.032Z,100229.81
2022-12-31T14:11:53.771Z,100229.75
2022-12-31T14:14:20.651Z,100233.38
2022-12-31T14:16:47.452Z,100230.03
2022-12-31T14:19:14.218Z,100228.69
2022-12-31T14:21:41.044Z,100215.91
2022-12-31T14:24:07.898Z,100225.84
2022-12-31T14:26:34.675Z,100230.06
2022-12-31T14:29:01.420Z,100223.94
2022-12-31T14:31:28.189Z,100224.50
2022-12-31T14:33:54.947Z,100231.69
2022-12-31T14:36:21.761Z,100229.78
2022-12-31T14:38:48.545Z,100228.91
2022-12-31T14:41:15.405Z,100227.25
2022-12-31T14:43:42.160Z,100234.19
2022-12-31T14:46:10.236Z,100233.38
2022-12-31T14:48:37.016Z,100227.78
2022-12-31T14:51:03.785Z,100228.97
2022-12-31T14:53:30.617Z,100231.44
2022-12-31T14:55:57.402Z,100235.56
2022-12-31T14:58:28.815Z,100239.19
2022-12-31T15:00:55.952Z,100228.09
2022-12-31T15:03:22.850Z,100232.28
2022-12-31T15:05:49.662Z,100231.97
2022-12-31T15:08:16.400Z,100243.06
2022-12-31T15:10:43.139Z,100236.16
2022-12-31T15:13:09.920Z,100233.34
2022-12-31T15:15:36.702Z,100231.72
2022-12-31T15:18:03.537Z,100236.66
2022-12-31T15:20:30.318Z,100247.75
2022-12-31T15:22:57.077Z,100256.13
2022-12-31T15:25:23.871Z,100253.84
2022-12-31T15:27:50.611Z,100245.59
2022-12-31T15:30:17.397Z,100243.34
2022-12-31T15:32:44.218Z,100237.81
2022-12-31T15:35:11.777Z,100236.69
2022-12-31T15:37:38.517Z,100240.03
2022-12-31T15:40:05.257Z,100260.53
2022-12-31T15:42:42.430Z,100264.97
2022-12-31T15:45:12.622Z,100261.66
2022-12-31T15:47:39.376Z,100265.81
2022-12-31T15:50:06.401Z,100267.22
2022-12-31T15:52:33.148Z,100269.94
2022-12-31T15:54:59.899Z,100272.69
2022-12-31T15:57:26.639Z,100276.88
2022-12-31T15:59:53.385Z,100281.91
2022-12-31T16:02:20.287Z,100283.25
2022-12-31T16:04:47.171Z,100288.25
2022-12-31T16:07:13.894Z,100294.34
2022-12-31T16:09:40.702Z,100299.91
2022-12-31T16:12:07.436Z,100301.50
2022-12-31T16:14:34.247Z,100295.50
2022-12-31T16:17:01.677Z,100309.00
2022-12-31T16:19:28.410Z,100305.47
2022-12-31T16:21:55.269Z,100299.91
2022-12-31T16:24:22.019Z,100288.78
2022-12-31T16:26:48.761Z,100291.81
2022-12-31T16:29:15.500Z,100290.72
2022-12-31T16:31:42.331Z,100299.91
2022-12-31T16:34:09.153Z,100294.63
2022-12-31T16:36:36.021Z,100305.41
2022-12-31T16:39:02.794Z,100316.47
2022-12-31T16:41:29.525Z,100307.41
2022-12-31T16:43:56.255Z,100309.00
2022-12-31T16:46:26.029Z,100318.19
2022-12-31T16:48:52.934Z,100309.09
2022-12-31T16:51:19.767Z,100304.34
2022-12-31T16:53:47.057Z,100309.84
2022-12-31T16:56:13.801Z,100305.97
2022-12-31T16:58:40.601Z,100310.19
2022-12-31T17:01:07.450Z,100311.78
2022-12-31T17:03:34.300Z,100307.63
2022-12-31T17:06:01.438Z,100299.84
2022-12-31T17:08:28.323Z,100302.91
2022-12-31T17:10:56.313Z,100305.94
2022-12-31T17:13:28.104Z,100310.44
2022-12-31T17:15:55.814Z,100311.25
2022-12-31T17:18:22.567Z,100299.88
2022-12-31T17:20:49.311Z,100307.91
2022-12-31T17:23:16.060Z,100301.00
2022-12-31T17:25:42.798Z,100310.44
2022-12-31T17:28:09.772Z,100301.50
2022-12-31T17:30:36.558Z,100300.41
2022-12-31T17:33:03.324Z,100302.63
2022-12-31T17:35:30.102Z,100307.09
2022-12-31T17:37:56.995Z,100315.94
2022-12-31T17:40:50.422Z,100317.94
2022-12-31T17:43:10.473Z,100327.00
2022-12-31T17:45:37.351Z,100318.63
2022-12-31T17:48:04.157Z,100319.00
2022-12-31T17:50:30.929Z,100326.75
2022-12-31T17:52:57.673Z,100327.31
2022-12-31T17:55:24.411Z,100320.06
2022-12-31T17:57:51.187Z,100325.41
2022-12-31T18:00:17.935Z,100318.19
2022-12-31T18:02:44.765Z,100318.44
2022-12-31T18:05:11.579Z,100322.34
2022-12-31T18:07:38.312Z,100324.81
2022-12-31T18:10:05.055Z,100325.63
2022-12-31T18:12:31.812Z,100322.03
2022-12-31T18:14:58.548Z,100315.38
2022-12-31T18:17:25.284Z,100321.47
2022-12-31T18:20:04.863Z,100328.16
2022-12-31T18:22:32.810Z,100326.75
2022-12-31T18:24:59.549Z,100328.75
2022-12-31T18:27:26.407Z,100325.41
2022-12-31T18:29:53.177Z,100329.28
2022-12-31T18:32:20.072Z,100326.75
2022-12-31T18:34:46.796Z,100333.66
2022-12-31T18:37:19.480Z,100330.66
2022-12-31T18:39:48.382Z,100328.38
2022-12-31T18:42:15.202Z,100332.31
2022-12-31T18:44:42.115Z,100333.16
2022-12-31T18:47:08.935Z,100329.25
2022-12-31T18:49:35.820Z,100340.66
2022-12-31T18:52:02.558Z,100340.31
2022-12-31T18:54:29.348Z,100337.34
2022-12-31T18:56:57.355Z,100340.94
2022-12-31T18:59:24.164Z,100341.22
2022-12-31T19:01:50.982Z,100335.91
2022-12-31T19:04:26.572Z,100342.63
2022-12-31T19:06:54.202Z,100340.91
2022-12-31T19:09:43.941Z,100329.84
2022-12-31T19:12:07.678Z,100331.47
2022-12-31T19:14:34.423Z,100324.81
2022-12-31T19:19:27.239Z,100329.84
2022-12-31T19:21:53.999Z,100338.16
2022-12-31T19:24:20.742Z,100330.97
2022-12-31T19:26:47.494Z,100331.81
2022-12-31T19:29:14.229Z,100330.34
2022-12-31T19:31:41.040Z,100322.06
2022-12-31T19:34:07.813Z,100315.97
2022-12-31T19:36:40.143Z,100311.53
2022-12-31T19:39:10.422Z,100318.75
2022-12-31T19:41:37.239Z,100311.00
2022-12-31T19:44:03.984Z,100323.47
2022-12-31T19:46:30.783Z,100321.53
2022-12-31T19:48:57.539Z,100319.28
2022-12-31T19:51:24.278Z,100314.56
2022-12-31T19:53:51.032Z,100320.69
2022-12-31T19:56:17.913Z,100324.50
2022-12-31T19:58:44.720Z,100330.38
2022-12-31T20:01:11.523Z,100330.16
2022-12-31T20:03:38.432Z,100331.75
2022-12-31T20:06:05.265Z,100331.22
2022-12-31T20:08:32.088Z,100335.34
2022-12-31T20:10:58.940Z,100340.34
2022-12-31T20:13:26.019Z,100336.22
2022-12-31T20:15:52.807Z,100338.16
2022-12-31T20:18:21.114Z,100335.91
2022-12-31T20:20:55.117Z,100335.91
2022-12-31T20:23:22.446Z,100326.00
2022-12-31T20:25:49.174Z,100316.28
2022-12-31T20:28:15.910Z,100307.69
2022-12-31T20:30:42.711Z,100318.19
2022-12-31T20:33:12.142Z,100317.06
2022-12-31T20:35:42.570Z,100324.25
2022-12-31T20:38:09.318Z,100313.19
2022-12-31T20:40:39.105Z,100316.47
2022-12-31T20:43:09.718Z,100311.22
2022-12-31T20:45:36.463Z,100314.56
2022-12-31T20:48:03.214Z,100316.19
2022-12-31T20:50:30.023Z,100316.97
2022-12-31T20:52:56.883Z,100326.47
2022-12-31T20:55:25.095Z,100324.56
2022-12-31T20:57:51.829Z,100328.47
2022-12-31T21:00:18.614Z,100330.38
2022-12-31T21:02:50.981Z,100332.56
2022-12-31T21:05:23.395Z,100333.91
2022-12-31T21:07:50.389Z,100338.72
2022-12-31T21:10:17.295Z,100351.69
2022-12-31T21:12:44.125Z,100359.25
2022-12-31T21:15:10.870Z,100365.28
2022-12-31T21:17:37.634Z,100368.13
2022-12-31T21:20:05.084Z,100372.75
2022-12-31T21:22:33.781Z,100362.53
2022-12-31T21:25:01.046Z,100373.09
2022-12-31T21:27:27.803Z,100365.34
2022-12-31T21:30:17.814Z,100361.97
2022-12-31T21:32:41.247Z,100365.84
2022-12-31T21:35:40.749Z,100365.06
2022-12-31T21:37:58.547Z,100362.53
2022-12-31T21:40:27.545Z,100361.47
2022-12-31T21:42:54.300Z,100361.94
2022-12-31T21:45:21.075Z,100358.59
2022-12-31T21:48:06.478Z,100364.78
2022-12-31T21:50:33.319Z,100376.94
2022-12-31T21:53:00.148Z,100375.81
2022-12-31T21:55:56.275Z,100384.09
2022-12-31T21:58:26.473Z,100390.59
2022-12-31T22:01:32.842Z,100390.78
2022-12-31T22:03:59.631Z,100404.38
2022-12-31T22:06:26.362Z,100399.59
2022-12-31T22:08:53.162Z,100407.31
2022-12-31T22:11:19.899Z,100404.09
2022-12-31T22:13:46.721Z,100421.25
2022-12-31T22:16:14.047Z,100414.63
2022-12-31T22:18:40.912Z,100416.81
2022-12-31T22:21:13.738Z,100420.16
2022-12-31T22:23:42.443Z,100422.94
2022-12-31T22:26:09.239Z,100426.53
2022-12-31T22:28:39.143Z,100421.81
2022-12-31T22:31:06.482Z,100424.66
2022-12-31T22:33:33.230Z,100424.56
2022-12-31T22:35:59.981Z,100431.22
2022-12-31T22:38:26.753Z,100422.38
2022-12-31T22:40:53.499Z,100432.63
2022-12-31T22:43:20.245Z,100430.97
2022-12-31T22:45:47.005Z,100425.16
2022-12-31T22:48:13.753Z,100436.78
2022-12-31T22:50:40.483Z,100435.13
2022-12-31T22:53:07.260Z,100426.78
2022-12-31T22:55:34.005Z,100434.75
2022-12-31T22:58:00.795Z,100437.88
2022-12-31T23:00:27.533Z,100442.84
2022-12-31T23:02:54.312Z,100447.59
2022-12-31T23:05:21.056Z,100447.22
2022-12-31T23:07:47.819Z,100456.75
2022-12-31T23:10:33.187Z,100456.19
2022-12-31T23:13:19.912Z,100452.03
2022-12-31T23:16:05.438Z,100457.00
2022-12-31T23:18:50.786Z,100458.34
2022-12-31T23:21:36.304Z,100452.50
2022-12-31T23:24:04.368Z,100461.09
2022-12-31T23:26:31.145Z,100472.16
2022-12-31T23:28:57.885Z,100478.78
2022-12-31T23:31:28.565Z,100477.69
2022-12-31T23:33:55.379Z,100475.47
2022-12-31T23:36:22.132Z,100486.25
2022-12-31T23:38:48.879Z,100492.56
2022-12-31T23:41:15.612Z,100490.41
2022-12-31T23:43:42.423Z,100500.66
2022-12-31T23:46:09.175Z,100497.66
2022-12-31T23:48:35.945Z,100503.44
2022-12-31T23:51:02.697Z,100510.50
2022-12-31T23:53:29.455Z,100511.50
2022-12-31T23:55:56.192Z,100513.69
2022-12-31T23:58:22.977Z,100518.69
